Time;durP1;ratioP1;P1;durP2;ratioP2;P2;SDS_P1;SDS_P2;PMS_P1;PMS_P2;Temp;Humidity;BMP_temperature;BMP_pressure;BME280_temperature;BME280_humidity;BME280_pressure;Samples;Min_cycle;Max_cycle;Signal;HPM_P1;HPM_P2
2022/11/28 00:01:21;;;;;;;25.83;19.35;;;;;;;2.80;83.05;99691.34;5027085;28;20046;-72
2022/11/28 00:03:48;;;;;;;28.73;19.45;;;;;;;3.14;83.42;99759.66;5027618;28;20054;-72
2022/11/28 00:06:15;;;;;;;29.45;20.88;;;;;;;2.65;82.99;99689.00;5027585;28;20046;-72
2022/11/28 00:08:42;;;;;;;24.73;18.63;;;;;;;3.14;82.99;99763.16;5027832;28;20046;-72
2022/11/28 00:11:14;;;;;;;22.58;17.38;;;;;;;3.14;83.12;99752.69;5027996;28;20113;-72
2022/11/28 00:13:41;;;;;;;28.98;19.98;;;;;;;3.10;83.30;99755.38;5027714;28;20053;-71
2022/11/28 00:16:09;;;;;;;25.67;19.25;;;;;;;3.11;83.31;99755.34;5027957;28;20061;-72
2022/11/28 00:18:36;;;;;;;23.00;17.35;;;;;;;3.13;82.81;99742.22;5027376;28;20100;-72
2022/11/28 00:21:04;;;;;;;27.10;17.77;;;;;;;2.93;82.98;99710.31;5026913;28;20037;-72
2022/11/28 00:23:32;;;;;;;24.85;18.00;;;;;;;3.06;83.67;99744.09;5027252;28;20046;-72
2022/11/28 00:25:59;;;;;;;22.75;17.08;;;;;;;3.08;83.26;99741.44;5027302;28;20096;-72
2022/11/28 00:28:27;;;;;;;23.25;17.73;;;;;;;3.02;83.46;99742.44;5026683;28;20050;-72
2022/11/28 00:30:54;;;;;;;24.85;18.08;;;;;;;3.02;83.66;99736.34;5027094;28;20233;-72
2022/11/28 00:33:21;;;;;;;26.38;18.75;;;;;;;2.99;83.63;99739.00;5027312;28;20049;-72
2022/11/28 00:35:48;;;;;;;22.63;16.55;;;;;;;2.96;83.39;99731.22;5027267;28;20229;-72
2022/11/28 00:38:15;;;;;;;25.75;17.63;;;;;;;2.96;83.39;99728.59;5026161;28;20045;-72
2022/11/28 00:40:41;;;;;;;21.23;16.58;;;;;;;2.94;83.20;99727.75;5027098;28;20057;-72
2022/11/28 00:43:10;;;;;;;22.48;17.08;;;;;;;2.93;83.48;99720.78;5027297;28;20045;-72
2022/11/28 00:45:38;;;;;;;22.23;15.85;;;;;;;2.89;83.58;99725.22;5026885;28;20376;-72
2022/11/28 00:48:05;;;;;;;25.33;17.58;;;;;;;2.86;83.53;99717.41;5027056;28;20072;-72
2022/11/28 00:50:32;;;;;;;24.17;18.30;;;;;;;2.89;83.29;99706.91;5027071;28;20088;-72
2022/11/28 00:52:59;;;;;;;21.08;15.63;;;;;;;2.91;83.39;99699.00;5025804;28;20061;-72
2022/11/28 00:55:26;;;;;;;22.00;15.95;;;;;;;2.88;83.58;99706.03;5026941;28;20060;-72
2022/11/28 00:57:54;;;;;;;20.92;16.85;;;;;;;2.86;83.25;99709.56;5025803;28;20041;-72
2022/11/28 01:00:21;;;;;;;20.83;16.42;;;;;;;2.84;83.20;99695.66;5026774;28;20041;-72
2022/11/28 01:02:49;;;;;;;21.95;16.45;;;;;;;2.85;83.11;99687.75;5026742;28;20325;-72
2022/11/28 01:05:16;;;;;;;19.23;15.00;;;;;;;2.84;83.63;99696.50;5026457;28;20053;-72
2022/11/28 01:07:43;;;;;;;19.88;14.25;;;;;;;2.82;83.21;99677.34;5026448;28;20206;-72
2022/11/28 01:10:11;;;;;;;20.23;15.95;;;;;;;2.36;83.33;99625.00;5026676;28;20057;-72
2022/11/28 01:12:38;;;;;;;20.45;15.80;;;;;;;2.80;83.13;99684.38;5025554;28;20037;-72
2022/11/28 01:15:06;;;;;;;23.77;15.20;;;;;;;2.24;83.09;99578.13;5026256;28;20046;-72
2022/11/28 01:17:32;;;;;;;22.52;15.48;;;;;;;2.87;83.07;99665.03;5026231;28;20096;-72
2022/11/28 01:20:01;;;;;;;17.73;14.10;;;;;;;2.80;82.87;99645.09;5025317;28;20064;-72
2022/11/28 01:22:27;;;;;;;21.27;15.95;;;;;;;2.83;83.09;99668.59;5026172;28;20049;-72
2022/11/28 01:24:54;;;;;;;20.73;16.10;;;;;;;2.79;82.75;99664.31;5026151;28;20046;-72
2022/11/28 01:27:21;;;;;;;18.73;14.70;;;;;;;2.76;82.83;99667.00;5026599;28;20057;-72
2022/11/28 01:29:48;;;;;;;17.42;12.52;;;;;;;2.67;82.65;99642.75;5026624;28;20045;-72
2022/11/28 01:32:15;;;;;;;16.50;12.63;;;;;;;2.49;82.59;99605.56;5026074;28;20045;-72
2022/11/28 01:34:42;;;;;;;17.10;13.15;;;;;;;2.74;82.75;99645.22;5026206;28;20071;-72
2022/11/28 01:37:10;;;;;;;17.50;13.32;;;;;;;2.68;83.07;99642.72;5025993;28;20045;-72
2022/11/28 01:39:38;;;;;;;18.63;13.63;;;;;;;2.13;82.84;99546.94;5025661;28;20049;-72
2022/11/28 01:42:05;;;;;;;18.10;13.35;;;;;;;2.60;82.98;99628.91;5026410;28;20038;-72
2022/11/28 01:45:12;;;;;;;21.23;15.07;;;;;;;2.60;83.86;99621.06;5026388;28;20053;-72
2022/11/28 01:47:40;;;;;;;20.77;12.93;;;;;;;2.57;83.20;99607.16;5026006;28;20121;-72
2022/11/28 01:50:08;;;;;;;17.77;12.23;;;;;;;2.56;83.25;99611.53;5026329;28;20042;-72
2022/11/28 01:52:40;;;;;;;18.20;13.35;;;;;;;2.54;83.86;99589.78;5025590;28;20061;-72
2022/11/28 01:55:08;;;;;;;19.15;13.15;;;;;;;2.49;84.05;99602.94;5025761;28;20054;-72
2022/11/28 01:57:35;;;;;;;17.50;12.48;;;;;;;2.46;84.12;99589.91;5025480;28;20042;-72
2022/11/28 02:00:07;;;;;;;17.83;13.70;;;;;;;2.28;84.52;99558.00;5025039;28;20048;-72
2022/11/28 02:02:42;;;;;;;17.45;13.00;;;;;;;2.42;85.16;99593.47;5025715;28;20057;-73
2022/11/28 02:05:09;;;;;;;19.90;13.20;;;;;;;2.42;84.96;99582.16;5025674;28;20245;-72
2022/11/28 02:07:38;;;;;;;19.50;13.95;;;;;;;2.40;84.80;99568.25;5025028;28;20301;-72
2022/11/28 02:10:08;;;;;;;19.70;14.48;;;;;;;2.39;85.22;99571.75;5024774;28;20038;-72
2022/11/28 02:12:45;;;;;;;19.05;13.43;;;;;;;2.42;84.72;99564.72;5025883;28;20057;-72
2022/11/28 02:15:29;;;;;;;19.88;13.60;;;;;;;2.42;85.44;99559.47;5025546;28;20064;-72
2022/11/28 02:18:09;;;;;;;19.92;14.00;;;;;;;2.41;85.29;99555.13;5025793;28;20088;-72
2022/11/28 02:21:04;;;;;;;19.77;12.73;;;;;;;2.45;85.98;99548.97;5025722;28;20096;-72
2022/11/28 02:23:51;;;;;;;18.08;12.23;;;;;;;2.47;85.36;99560.25;5025726;28;20068;-72
2022/11/28 02:26:54;;;;;;;19.73;12.60;;;;;;;2.48;85.97;99555.88;5028884;28;20049;-72
2022/11/28 02:29:54;;;;;;;18.73;12.80;;;;;;;2.48;85.82;99535.81;5029948;28;20052;-72
2022/11/28 02:32:34;;;;;;;19.20;13.75;;;;;;;2.29;85.67;99496.97;5024794;28;20074;-72
2022/11/28 02:35:09;;;;;;;23.10;15.52;;;;;;;2.54;85.03;99535.69;5028982;28;20042;-72
2022/11/28 02:37:38;;;;;;;;;;;;;;;2.53;86.39;99531.34;5029163;28;20041;-72
2022/11/28 02:40:15;;;;;;;20.58;12.68;;;;;;;2.54;85.36;99534.84;5028300;28;19924;-72
2022/11/28 02:42:53;;;;;;;19.58;13.05;;;;;;;2.60;84.92;99531.22;5029188;28;20096;-72
2022/11/28 02:45:27;;;;;;;21.70;14.93;;;;;;;2.62;85.11;99532.06;5028274;28;20041;-72
2022/11/28 02:48:02;;;;;;;20.33;14.30;;;;;;;2.63;85.23;99529.41;5029330;28;20053;-72
2022/11/28 02:50:31;;;;;;;;;;;;;;;2.61;86.03;99518.13;5028651;28;20044;-72
2022/11/28 02:53:03;;;;;;;22.48;13.18;;;;;;;2.61;84.90;99512.88;5028800;28;20035;-72
2022/11/28 02:55:31;;;;;;;21.77;13.98;;;;;;;2.64;84.66;99511.97;5011838;28;20045;-72
2022/11/28 02:57:58;;;;;;;21.38;14.25;;;;;;;2.64;84.62;99518.06;5029176;28;20324;-73
2022/11/28 03:00:29;;;;;;;21.17;14.43;;;;;;;2.65;84.54;99503.22;5029046;28;20045;-72
2022/11/28 03:03:42;;;;;;;17.63;12.48;;;;;;;2.68;85.14;99504.00;5029283;28;20052;-72
2022/11/28 03:06:18;;;;;;;22.23;13.38;;;;;;;2.65;84.67;99501.47;5010391;28;20065;-72
2022/11/28 03:09:01;;;;;;;18.25;12.55;;;;;;;2.67;84.92;99497.06;5028788;28;20046;-72
2022/11/28 03:11:42;;;;;;;18.17;11.57;;;;;;;2.66;84.68;99503.19;5028313;28;20061;-72
2022/11/28 03:14:19;;;;;;;19.00;11.43;;;;;;;2.67;84.75;99497.06;5029094;28;20046;-72
2022/11/28 03:16:50;;;;;;;19.45;13.07;;;;;;;2.61;84.68;99488.47;5027679;28;20055;-72
2022/11/28 03:19:26;;;;;;;19.67;12.65;;;;;;;2.70;84.30;99483.91;5028439;28;20052;-72
2022/11/28 03:22:02;;;;;;;19.67;12.57;;;;;;;2.70;84.60;99499.59;5028364;28;20052;-72
2022/11/28 03:24:36;;;;;;;19.23;13.35;;;;;;;2.49;84.41;99458.19;5028626;28;20092;-72
2022/11/28 03:27:10;;;;;;;18.00;12.15;;;;;;;2.68;84.42;99485.69;5028362;28;20048;-72
2022/11/28 03:29:41;;;;;;;19.53;13.97;;;;;;;2.70;84.35;99486.53;5028065;28;20282;-72
2022/11/28 03:32:11;;;;;;;19.25;12.82;;;;;;;2.67;84.43;99497.06;5028218;28;20037;-72
2022/11/28 03:34:44;;;;;;;19.85;13.40;;;;;;;2.66;85.06;99491.84;5028467;28;20060;-72
2022/11/28 03:37:15;;;;;;;17.23;12.07;;;;;;;2.68;84.40;99490.94;5028020;28;20112;-72
2022/11/28 03:39:48;;;;;;;19.73;13.10;;;;;;;1.96;84.59;99354.69;5028662;28;20037;-72
2022/11/28 03:42:20;;;;;;;17.02;11.45;;;;;;;2.68;84.59;99469.13;5027979;28;20211;-72
2022/11/28 03:44:53;;;;;;;19.35;13.00;;;;;;;2.70;85.30;99489.16;5028260;28;20045;-72
2022/11/28 03:47:20;;;;;;;20.63;13.68;;;;;;;2.72;84.67;99492.59;5027934;28;20256;-72
2022/11/28 03:49:52;;;;;;;18.30;11.63;;;;;;;2.69;84.67;99479.56;5027863;28;20099;-72
2022/11/28 03:52:25;;;;;;;18.63;13.70;;;;;;;2.73;84.84;99489.06;5026978;28;20060;-72
2022/11/28 03:54:55;;;;;;;18.52;12.48;;;;;;;2.75;84.59;99482.06;5027263;28;20297;-72
2022/11/28 03:57:28;;;;;;;18.08;12.85;;;;;;;2.74;84.74;99475.09;5028073;28;20045;-72
2022/11/28 04:00:00;;;;;;;19.67;12.30;;;;;;;2.77;84.84;99471.56;5027982;28;20084;-72
2022/11/28 04:02:34;;;;;;;20.95;13.20;;;;;;;2.75;84.99;99468.97;5027069;28;20042;-72
2022/11/28 04:05:07;;;;;;;21.15;14.25;;;;;;;2.77;84.95;99476.78;5027855;28;20053;-72
2022/11/28 04:07:41;;;;;;;19.52;12.65;;;;;;;2.74;85.13;99445.44;5027565;28;20054;-72
2022/11/28 04:10:15;;;;;;;19.75;14.13;;;;;;;2.54;85.41;99420.56;5028051;28;20042;-72
2022/11/28 04:12:53;;;;;;;15.48;11.18;;;;;;;2.70;85.44;99473.44;5028032;28;20056;-72
2022/11/28 04:15:26;;;;;;;17.55;11.95;;;;;;;2.68;84.85;99453.44;5027929;28;20037;-72
2022/11/28 04:17:58;;;;;;;16.42;11.98;;;;;;;2.72;84.64;99442.88;5027622;28;20049;-72
2022/11/28 04:20:32;;;;;;;22.30;14.57;;;;;;;2.74;85.11;99459.41;5027308;28;20045;-72
2022/11/28 04:23:04;;;;;;;19.75;12.35;;;;;;;1.91;85.70;99336.50;5027446;28;20104;-72
2022/11/28 04:25:36;;;;;;;20.20;13.13;;;;;;;2.72;85.01;99444.63;5027199;28;20179;-72
2022/11/28 04:28:07;;;;;;;17.58;11.63;;;;;;;2.72;84.94;99432.41;5026236;28;20092;-72
2022/11/28 04:30:36;;;;;;;15.93;11.68;;;;;;;1.61;84.65;99257.00;5027303;28;20057;-72
2022/11/28 04:33:08;;;;;;;17.85;12.20;;;;;;;2.72;84.71;99448.09;5026260;28;20348;-72
2022/11/28 04:35:40;;;;;;;18.75;11.27;;;;;;;2.75;85.05;99468.09;5026201;28;20095;-72
2022/11/28 04:38:10;;;;;;;17.38;11.13;;;;;;;2.74;84.55;99433.22;5026524;28;20045;-72
2022/11/28 04:40:42;;;;;;;19.58;13.13;;;;;;;2.74;84.50;99440.22;5026933;28;20103;-72
2022/11/28 04:43:16;;;;;;;19.15;13.18;;;;;;;2.73;84.73;99436.72;5027426;28;20079;-72
2022/11/28 04:45:49;;;;;;;17.90;12.48;;;;;;;2.74;84.21;99430.59;5026855;28;20055;-72
2022/11/28 04:48:16;;;;;;;15.88;11.77;;;;;;;2.73;84.50;99423.66;5026355;28;20144;-72
2022/11/28 04:50:50;;;;;;;18.92;13.38;;;;;;;2.75;84.68;99431.47;5027284;28;20045;-72
2022/11/28 04:53:24;;;;;;;23.73;13.93;;;;;;;2.72;84.81;99437.63;5025899;28;20050;-72
2022/11/28 04:55:56;;;;;;;20.80;13.80;;;;;;;2.75;84.01;99419.25;5026117;28;20092;-72
2022/11/28 04:58:29;;;;;;;17.63;11.55;;;;;;;2.20;84.21;99341.13;5026587;28;20045;-72
2022/11/28 05:00:57;;;;;;;16.50;11.13;;;;;;;2.79;84.48;99426.13;5026757;28;20042;-72
2022/11/28 05:03:27;;;;;;;20.23;14.23;;;;;;;2.77;84.19;99420.06;5025695;28;20045;-72
2022/11/28 05:05:55;;;;;;;18.88;12.18;;;;;;;2.77;84.09;99406.13;5027043;28;20046;-72
2022/11/28 05:08:22;;;;;;;17.50;10.73;;;;;;;2.76;83.70;99402.66;5026474;28;20045;-72
2022/11/28 05:10:49;;;;;;;20.73;12.55;;;;;;;2.78;83.72;99403.47;5026652;28;20328;-72
2022/11/28 05:13:17;;;;;;;18.48;12.02;;;;;;;2.79;83.76;99433.97;5025547;28;20037;-72
2022/11/28 05:15:43;;;;;;;18.35;12.68;;;;;;;2.79;83.62;99415.66;5026728;28;20406;-72
2022/11/28 05:18:10;;;;;;;16.90;11.48;;;;;;;2.81;83.62;99410.38;5026708;28;20054;-72
2022/11/28 05:20:38;;;;;;;14.82;10.63;;;;;;;2.55;83.88;99385.66;5026655;28;20041;-72
2022/11/28 05:23:06;;;;;;;16.55;11.88;;;;;;;2.78;83.29;99406.09;5025316;28;20052;-72
2022/11/28 05:25:33;;;;;;;17.10;10.35;;;;;;;2.79;83.45;99414.78;5026392;28;20108;-72
2022/11/28 05:28:00;;;;;;;16.88;11.00;;;;;;;2.78;83.56;99410.47;5026376;28;20046;-72
2022/11/28 05:30:26;;;;;;;16.60;11.75;;;;;;;2.41;83.06;99337.16;5026037;28;20186;-72
2022/11/28 05:32:53;;;;;;;15.88;11.60;;;;;;;2.58;83.48;99360.34;5026229;28;20050;-72
2022/11/28 05:35:20;;;;;;;14.32;10.30;;;;;;;2.74;83.38;99393.97;5025062;28;20041;-72
2022/11/28 05:37:46;;;;;;;17.63;10.63;;;;;;;2.75;83.37;99408.78;5026152;28;20099;-72
2022/11/28 05:40:15;;;;;;;15.40;10.32;;;;;;;2.76;83.21;99402.66;5025059;28;20050;-72
2022/11/28 05:42:41;;;;;;;14.45;10.05;;;;;;;2.76;83.29;99409.63;5026081;28;20297;-72
2022/11/28 05:45:09;;;;;;;15.40;10.07;;;;;;;2.73;82.95;99400.09;5025789;28;20045;-72
2022/11/28 05:47:36;;;;;;;16.65;11.82;;;;;;;2.75;82.95;99405.28;5025943;28;20050;-72
2022/11/28 05:50:03;;;;;;;14.57;10.07;;;;;;;2.73;83.35;99418.41;5025848;28;20233;-72
2022/11/28 05:52:31;;;;;;;15.15;10.05;;;;;;;2.72;83.15;99408.84;5024747;28;20124;-72
2022/11/28 05:54:58;;;;;;;13.15;9.90;;;;;;;2.16;82.83;99322.03;5025965;28;20226;-72
2022/11/28 05:57:28;;;;;;;14.13;9.25;;;;;;;2.73;82.93;99404.47;5024880;28;20038;-72
2022/11/28 05:59:56;;;;;;;14.18;10.55;;;;;;;2.54;83.50;99370.88;5025480;28;20237;-72
2022/11/28 06:02:23;;;;;;;12.52;8.80;;;;;;;2.63;83.07;99375.03;5025075;28;20193;-72
2022/11/28 06:04:49;;;;;;;21.33;11.07;;;;;;;2.76;83.22;99399.16;5025625;28;20038;-72
2022/11/28 06:07:17;;;;;;;15.60;10.77;;;;;;;2.54;83.13;99360.41;5025234;28;20068;-72
2022/11/28 06:09:44;;;;;;;16.45;10.82;;;;;;;2.76;83.42;99394.78;5026037;28;20061;-72
2022/11/28 06:12:11;;;;;;;16.45;11.13;;;;;;;2.77;83.41;99385.19;5025382;28;20037;-72
2022/11/28 06:14:39;;;;;;;16.25;12.00;;;;;;;2.69;83.80;99379.25;5025731;28;20045;-72
2022/11/28 06:17:06;;;;;;;17.25;11.07;;;;;;;2.77;83.64;99385.19;5025538;28;20045;-72
2022/11/28 06:19:32;;;;;;;17.15;11.50;;;;;;;2.76;83.51;99394.78;5024673;28;20045;-72
2022/11/28 06:21:59;;;;;;;21.58;12.05;;;;;;;2.79;83.32;99399.09;5025332;28;20038;-72
2022/11/28 06:24:26;;;;;;;16.48;10.75;;;;;;;2.80;83.46;99399.06;5024637;28;20050;-72
2022/11/28 06:26:53;;;;;;;16.15;11.68;;;;;;;2.81;83.22;99384.22;5025966;28;20042;-72
2022/11/28 06:29:20;;;;;;;21.73;13.43;;;;;;;2.34;83.41;99306.81;5025425;28;20048;-72
2022/11/28 06:31:48;;;;;;;18.63;12.20;;;;;;;2.84;83.27;99379.78;5025120;28;20294;-72
2022/11/28 06:34:15;;;;;;;19.73;12.50;;;;;;;2.84;83.41;99377.16;5025926;28;20052;-72
2022/11/28 06:36:43;;;;;;;18.40;12.73;;;;;;;2.69;83.29;99343.50;5025599;28;20319;-72
2022/11/28 06:39:13;;;;;;;15.88;11.45;;;;;;;2.87;83.11;99373.59;5025272;28;20104;-72
2022/11/28 06:41:40;;;;;;;19.23;12.45;;;;;;;2.91;83.13;99379.63;5025117;28;20256;-72
2022/11/28 06:44:06;;;;;;;17.45;12.05;;;;;;;2.92;82.98;99379.59;5024391;28;20090;-72
2022/11/28 06:46:33;;;;;;;18.58;12.93;;;;;;;2.95;83.12;99387.38;5025229;28;20298;-72
2022/11/28 06:49:01;;;;;;;19.70;12.18;;;;;;;2.95;82.61;99376.03;5024305;28;20042;-72
2022/11/28 06:51:28;;;;;;;18.13;12.05;;;;;;;2.77;82.71;99356.41;5024624;28;20321;-72
2022/11/28 06:53:55;;;;;;;19.55;11.88;;;;;;;2.73;82.88;99342.53;5025293;28;20065;-72
2022/11/28 06:56:22;;;;;;;17.70;13.30;;;;;;;2.97;82.81;99377.72;5025294;28;20201;-72
2022/11/28 06:58:55;;;;;;;18.13;13.00;;;;;;;2.96;83.03;99380.38;5024516;28;20049;-72
2022/11/28 07:01:23;;;;;;;17.92;12.02;;;;;;;2.98;82.55;99383.81;5024998;28;20202;-72
2022/11/28 07:03:53;;;;;;;19.95;11.70;;;;;;;2.23;82.84;99281.78;5025225;28;20104;-72
2022/11/28 07:06:23;;;;;;;17.13;11.35;;;;;;;2.99;82.42;99372.44;5025238;28;20173;-72
2022/11/28 07:08:50;;;;;;;14.48;11.25;;;;;;;3.02;82.47;99367.13;5025071;28;20183;-72
2022/11/28 07:11:18;;;;;;;16.70;12.02;;;;;;;3.03;82.43;99355.75;5025010;28;20194;-72
2022/11/28 07:13:46;;;;;;;16.77;11.98;;;;;;;3.06;82.19;99361.78;5028579;28;20319;-72
2022/11/28 07:16:15;;;;;;;17.63;11.57;;;;;;;3.07;82.07;99370.50;5027715;28;20314;-72
2022/11/28 07:18:41;;;;;;;19.75;12.60;;;;;;;3.09;82.23;99366.09;5028564;28;20095;-72
2022/11/28 07:21:09;;;;;;;14.23;10.63;;;;;;;3.11;82.51;99369.53;5028367;28;20041;-72
2022/11/28 07:23:37;;;;;;;17.75;12.20;;;;;;;3.09;82.38;99361.72;5028247;28;20049;-72
2022/11/28 07:26:05;;;;;;;20.33;13.70;;;;;;;3.11;82.37;99361.66;5028789;28;20038;-72
2022/11/28 07:28:32;;;;;;;15.60;11.80;;;;;;;3.10;82.46;99360.81;5028241;28;20233;-73
2022/11/28 07:31:02;;;;;;;16.73;11.57;;;;;;;2.94;82.16;99312.34;5027304;28;20125;-72
2022/11/28 07:33:29;;;;;;;18.55;11.82;;;;;;;3.17;82.18;99343.19;5028479;28;20038;-73
2022/11/28 07:36:00;;;;;;;19.75;12.27;;;;;;;3.19;82.12;99341.38;5027934;28;20046;-72
2022/11/28 07:38:26;;;;;;;20.90;12.57;;;;;;;3.01;82.22;99321.75;5028492;28;20053;-72
2022/11/28 07:40:55;;;;;;;19.80;12.95;;;;;;;3.13;82.16;99347.63;5027421;28;20065;-72
2022/11/28 07:43:22;;;;;;;19.55;13.13;;;;;;;3.21;82.08;99342.22;5027909;28;20052;-72
2022/11/28 07:45:48;;;;;;;23.23;14.07;;;;;;;3.24;82.16;99364.84;5028217;28;20349;-73
2022/11/28 07:48:15;;;;;;;19.75;13.35;;;;;;;3.04;82.14;99308.59;5027068;28;20045;-72
2022/11/28 07:50:42;;;;;;;21.77;13.52;;;;;;;3.31;81.79;99340.22;5027471;28;20166;-72
2022/11/28 07:53:09;;;;;;;18.80;12.40;;;;;;;3.32;81.75;99331.44;5027201;28;20053;-72
2022/11/28 07:55:36;;;;;;;17.77;11.98;;;;;;;3.20;81.76;99302.06;5027652;28;20046;-72
2022/11/28 07:58:04;;;;;;;22.08;13.32;;;;;;;3.43;81.28;99326.78;5027941;28;20045;-73
2022/11/28 08:00:32;;;;;;;18.85;13.45;;;;;;;3.34;81.04;99314.78;5027771;28;20061;-72
2022/11/28 08:02:59;;;;;;;17.98;12.48;;;;;;;3.53;81.13;99325.66;5027732;28;20053;-73
2022/11/28 08:05:26;;;;;;;19.50;12.52;;;;;;;3.61;80.78;99334.16;5026600;28;20064;-72
2022/11/28 08:07:53;;;;;;;20.42;13.55;;;;;;;3.62;80.56;99330.63;5026567;28;20046;-72
2022/11/28 08:10:20;;;;;;;17.73;11.80;;;;;;;3.63;80.51;99341.97;5026763;28;20152;-73
2022/11/28 08:12:47;;;;;;;23.27;13.63;;;;;;;3.68;80.34;99334.84;5027685;28;20108;-72
2022/11/28 08:15:15;;;;;;;20.02;12.93;;;;;;;3.74;80.28;99313.72;5027272;28;20061;-73
2022/11/28 08:17:42;;;;;;;19.88;13.18;;;;;;;3.80;79.82;99324.03;5026491;28;20041;-73
2022/11/28 08:20:10;;;;;;;20.33;13.73;;;;;;;3.89;79.77;99331.63;5027506;28;20108;-72
2022/11/28 08:22:36;;;;;;;20.92;14.30;;;;;;;3.95;79.45;99330.59;5027054;28;20344;-73
2022/11/28 08:25:03;;;;;;;20.38;14.32;;;;;;;2.48;79.19;99105.94;5026311;28;20229;-73
2022/11/28 08:27:31;;;;;;;20.63;14.65;;;;;;;3.57;78.92;99239.94;5027537;28;20108;-72
2022/11/28 08:29:58;;;;;;;20.63;13.80;;;;;;;0.07;78.42;98651.69;5027110;28;20297;-73
2022/11/28 08:32:28;;;;;;;20.95;14.95;;;;;;;4.16;78.33;99322.94;5027471;28;20088;-72
2022/11/28 08:34:55;;;;;;;16.95;12.45;;;;;;;4.21;78.28;99325.47;5026946;28;20053;-72
2022/11/28 08:37:22;;;;;;;19.17;12.43;;;;;;;3.99;78.17;99271.91;5026864;28;20053;-72
2022/11/28 08:39:48;;;;;;;18.60;13.02;;;;;;;4.27;77.83;99314.78;5027166;28;20049;-72
2022/11/28 08:42:15;;;;;;;19.77;14.43;;;;;;;4.36;77.80;99321.53;5026378;28;20034;-72
2022/11/28 08:44:42;;;;;;;16.42;12.27;;;;;;;4.42;77.45;99331.84;5026769;28;20057;-71
2022/11/28 08:47:08;;;;;;;17.73;13.02;;;;;;;4.47;77.11;99333.41;5027239;28;20054;-72
2022/11/28 08:49:38;;;;;;;18.00;12.30;;;;;;;4.36;76.79;99293.53;5026719;28;20049;-72
2022/11/28 08:52:05;;;;;;;18.45;14.18;;;;;;;4.64;76.79;99325.00;5025527;28;20129;-72
2022/11/28 08:54:32;;;;;;;17.38;12.23;;;;;;;4.75;75.95;99333.41;5025992;28;20037;-72
2022/11/28 08:57:00;;;;;;;16.85;11.98;;;;;;;4.84;75.97;99306.00;5027148;28;20037;-72
2022/11/28 08:59:26;;;;;;;18.92;12.30;;;;;;;4.96;75.56;99310.03;5026542;28;20324;-72
2022/11/28 09:01:54;;;;;;;16.30;11.75;;;;;;;5.01;75.01;99315.97;5026545;28;20237;-72
2022/11/28 09:04:21;;;;;;;16.60;11.98;;;;;;;5.10;75.21;99298.13;5026479;28;20038;-72
2022/11/28 09:06:49;;;;;;;15.82;11.48;;;;;;;5.15;74.18;99316.38;5026358;28;20072;-71
2022/11/28 09:09:16;;;;;;;17.85;12.50;;;;;;;5.20;74.54;99310.97;5025853;28;20061;-72
2022/11/28 09:11:43;;;;;;;19.35;13.38;;;;;;;4.10;73.96;99112.47;5026603;28;20045;-72
2022/11/28 09:14:10;;;;;;;18.67;12.77;;;;;;;4.71;74.07;99204.91;5025544;28;20233;-72
2022/11/28 09:16:37;;;;;;;18.10;11.00;;;;;;;5.45;73.96;99296.06;5026548;28;20041;-72
2022/11/28 09:19:05;;;;;;;19.27;12.48;;;;;;;5.49;72.75;99299.44;5026119;28;20046;-73
2022/11/28 09:21:32;;;;;;;15.48;11.50;;;;;;;5.43;73.09;99317.16;5026095;28;20054;-73
2022/11/28 09:24:01;;;;;;;18.73;12.15;;;;;;;5.33;73.41;99294.72;5025536;28;20042;-72
2022/11/28 09:26:28;;;;;;;18.70;12.00;;;;;;;4.92;73.52;99229.63;5025306;28;20099;-71
2022/11/28 09:28:55;;;;;;;15.90;11.98;;;;;;;5.01;73.80;99268.69;5026172;28;20054;-72
2022/11/28 09:31:22;;;;;;;16.65;11.88;;;;;;;4.94;73.20;99252.28;5025482;28;20084;-70
2022/11/28 09:33:49;;;;;;;18.40;12.05;;;;;;;5.16;73.54;99290.97;5025776;28;20045;-72
2022/11/28 09:36:18;;;;;;;19.20;13.35;;;;;;;5.12;73.52;99277.06;5025831;28;20050;-71
2022/11/28 09:38:45;;;;;;;17.75;13.15;;;;;;;5.12;73.73;99264.78;5025877;28;20041;-71
2022/11/28 09:41:36;;;;;;;18.05;12.48;;;;;;;5.21;73.09;99274.13;5025779;28;20205;-71
2022/11/28 09:44:09;;;;;;;17.25;12.45;;;;;;;5.27;72.70;99278.31;5026273;28;20049;-70
2022/11/28 09:46:38;;;;;;;16.30;11.05;;;;;;;5.06;72.92;99232.63;5025758;28;20244;-71
2022/11/28 09:49:24;;;;;;;15.95;11.90;;;;;;;5.28;72.08;99280.03;5026357;28;20053;-71
2022/11/28 09:51:54;;;;;;;19.38;12.95;;;;;;;5.31;72.93;99258.91;5025790;28;20065;-72
2022/11/28 09:54:29;;;;;;;15.63;11.85;;;;;;;5.23;72.31;99242.53;5025752;28;20046;-71
2022/11/28 09:57:00;;;;;;;16.95;11.57;;;;;;;5.35;72.03;99265.75;5024923;28;20056;-71
2022/11/28 09:59:29;;;;;;;16.45;11.88;;;;;;;4.87;72.04;99176.38;5024853;28;20094;-72
2022/11/28 10:02:10;;;;;;;19.25;13.48;;;;;;;5.48;71.15;99247.78;5026095;28;20060;-71
2022/11/28 10:04:42;;;;;;;14.73;11.50;;;;;;;5.63;71.02;99241.97;5025373;28;20045;-72
2022/11/28 10:07:19;;;;;;;18.85;12.15;;;;;;;5.74;70.82;99242.44;5024803;28;20069;-72
2022/11/28 10:09:56;;;;;;;15.88;11.63;;;;;;;5.87;70.51;99242.81;5025594;28;20121;-73
2022/11/28 10:12:36;;;;;;;17.45;11.65;;;;;;;5.64;69.50;99180.59;5025804;28;20174;-72
2022/11/28 10:15:11;;;;;;;15.57;11.60;;;;;;;5.97;70.38;99241.56;5024706;28;20100;-72
2022/11/28 10:17:49;;;;;;;18.77;13.40;;;;;;;5.96;69.25;99248.59;5025737;28;20054;-71
2022/11/28 10:20:21;;;;;;;19.08;11.85;;;;;;;5.90;69.64;99251.47;5025982;28;20052;-71
2022/11/28 10:22:52;;;;;;;17.27;11.70;;;;;;;5.82;68.74;99292.97;5024590;28;20038;-71
2022/11/28 10:25:22;;;;;;;16.02;10.52;;;;;;;5.63;69.87;99216.53;5025336;28;20056;-72
2022/11/28 10:27:51;;;;;;;15.88;10.63;;;;;;;5.77;69.68;99235.28;5024458;28;20298;-71
2022/11/28 10:30:24;;;;;;;13.98;11.45;;;;;;;5.77;68.84;99242.31;5025390;28;20113;-71
2022/11/28 10:33:01;;;;;;;14.60;10.52;;;;;;;5.09;67.91;99151.09;5025269;28;20057;-71
2022/11/28 10:35:34;;;;;;;15.70;11.25;;;;;;;5.86;68.29;99236.72;5025236;28;20282;-72
2022/11/28 10:38:00;;;;;;;14.02;10.10;;;;;;;5.88;68.80;99219.09;5025150;28;20045;-71
2022/11/28 10:40:42;;;;;;;17.58;10.00;;;;;;;5.72;67.92;99203.03;5025373;28;20046;-71
2022/11/28 10:43:24;;;;;;;13.80;10.07;;;;;;;5.99;67.99;99208.16;5025020;28;20069;-71
2022/11/28 10:46:02;;;;;;;18.58;10.95;;;;;;;6.06;68.07;99193.84;5024390;28;20042;-71
2022/11/28 10:48:40;;;;;;;14.65;10.48;;;;;;;6.09;66.42;99202.47;5029069;28;20109;-71
2022/11/28 10:51:17;;;;;;;12.52;9.63;;;;;;;6.10;66.98;99198.94;5028699;28;20081;-72
2022/11/28 10:53:51;;;;;;;16.98;10.02;;;;;;;6.17;67.59;99209.22;5029096;28;20053;-71
2022/11/28 10:56:32;;;;;;;13.30;11.73;;;;;;;6.12;66.63;99188.34;5029113;28;20112;-71
2022/11/28 10:59:13;;;;;;;14.00;10.25;;;;;;;6.16;66.86;99197.84;5029247;28;20116;-72
2022/11/28 11:01:41;;;;;;;12.93;10.75;;;;;;;5.99;67.13;99168.69;5028917;28;20046;-71
2022/11/28 11:04:18;;;;;;;13.43;9.98;;;;;;;6.08;66.43;99195.50;5027693;28;20048;-71
2022/11/28 11:06:53;;;;;;;13.35;10.60;;;;;;;6.04;67.60;99182.53;5028555;28;20210;-71
2022/11/28 11:09:20;;;;;;;14.60;11.27;;;;;;;5.82;68.00;99156.22;5028284;28;20046;-71
2022/11/28 11:11:55;;;;;;;15.45;11.25;;;;;;;5.27;66.94;99071.59;5028918;28;20250;-71
2022/11/28 11:14:34;;;;;;;14.57;9.95;;;;;;;6.03;67.20;99186.06;5028374;28;20052;-71
2022/11/28 11:17:01;;;;;;;16.63;11.00;;;;;;;6.07;68.84;99188.53;5027472;28;20037;-72
2022/11/28 11:19:30;;;;;;;15.25;11.05;;;;;;;5.84;67.18;99154.38;5028276;28;20252;-71
2022/11/28 11:22:14;;;;;;;15.70;11.48;;;;;;;5.85;67.01;99211.31;5028712;28;20042;-72
2022/11/28 11:24:41;;;;;;;16.85;11.80;;;;;;;5.81;68.81;99179.94;5028791;28;20042;-72
2022/11/28 11:27:18;;;;;;;15.65;12.00;;;;;;;5.83;67.96;99189.47;5028574;28;20056;-72
2022/11/28 11:29:46;;;;;;;15.07;11.60;;;;;;;5.82;68.71;99190.41;5028605;28;20057;-72
2022/11/28 11:32:21;;;;;;;13.70;10.48;;;;;;;5.85;68.58;99176.28;5028211;28;20044;-71
2022/11/28 11:34:48;;;;;;;16.95;12.50;;;;;;;5.84;69.10;99192.97;5028051;28;20318;-72
2022/11/28 11:37:28;;;;;;;19.95;13.63;;;;;;;5.81;68.93;99172.03;5027266;28;20060;-72
2022/11/28 11:39:55;;;;;;;19.67;13.30;;;;;;;5.57;69.34;99153.66;5028033;28;20057;-71
2022/11/28 11:42:23;;;;;;;17.20;12.70;;;;;;;5.69;69.79;99176.88;5027150;28;20045;-71